createdAt,value
2023-01-08T00:00:07.910Z,18.10
2023-01-08T00:02:10.778Z,15.55
2023-01-08T00:04:12.823Z,16.13
2023-01-08T00:06:17.738Z,21.67
2023-01-08T00:08:19.670Z,14.88
2023-01-08T00:10:23.211Z,14.57
2023-01-08T00:12:25.414Z,18.20
2023-01-08T00:14:27.651Z,14.60
2023-01-08T00:16:30.159Z,15.82
2023-01-08T00:18:32.380Z,13.73
2023-01-08T00:20:35.970Z,17.08
2023-01-08T00:22:38.135Z,15.50
2023-01-08T00:24:40.328Z,14.90
2023-01-08T00:26:42.414Z,21.70
2023-01-08T00:28:44.312Z,18.88
2023-01-08T00:30:46.322Z,24.65
2023-01-08T00:32:48.304Z,17.15
2023-01-08T00:34:50.211Z,24.60
2023-01-08T00:36:52.498Z,19.80
2023-01-08T00:38:54.397Z,19.95
2023-01-08T00:40:56.272Z,23.88
2023-01-08T00:42:58.160Z,19.02
2023-01-08T00:45:00.071Z,23.92
2023-01-08T00:47:01.985Z,20.60
2023-01-08T00:49:03.857Z,20.25
2023-01-08T00:51:07.638Z,30.40
2023-01-08T00:53:09.483Z,22.17
2023-01-08T00:55:11.461Z,28.73
2023-01-08T00:57:13.705Z,25.85
2023-01-08T00:59:15.674Z,23.67
2023-01-08T01:01:17.982Z,26.58
2023-01-08T01:03:20.049Z,31.70
2023-01-08T01:05:21.988Z,27.88
2023-01-08T01:07:23.920Z,32.47
2023-01-08T01:09:25.867Z,31.98
2023-01-08T01:11:28.514Z,31.52
2023-01-08T01:13:30.420Z,23.38
2023-01-08T01:15:32.364Z,25.55
2023-01-08T01:17:35.396Z,23.65
2023-01-08T01:19:37.352Z,21.70
2023-01-08T01:21:39.359Z,23.38
2023-01-08T01:23:41.263Z,26.10
2023-01-08T01:25:45.714Z,23.35
2023-01-08T01:27:47.793Z,21.38
2023-01-08T01:29:51.197Z,17.48
2023-01-08T01:31:53.268Z,17.67
2023-01-08T01:33:55.479Z,18.88
2023-01-08T01:36:02.068Z,21.38
2023-01-08T01:38:03.952Z,25.33
2023-01-08T01:40:06.471Z,26.08
2023-01-08T01:42:35.740Z,19.35
2023-01-08T01:44:46.908Z,21.38
2023-01-08T01:46:50.253Z,26.73
2023-01-08T01:48:56.664Z,25.52
2023-01-08T01:50:58.627Z,22.00
2023-01-08T01:53:26.191Z,21.95
2023-01-08T01:55:28.828Z,22.33
2023-01-08T01:57:33.019Z,24.77
2023-01-08T01:59:34.963Z,27.42
2023-01-08T02:01:38.024Z,19.50
2023-01-08T02:03:40.831Z,21.92
2023-01-08T02:05:45.532Z,19.95
2023-01-08T02:08:08.542Z,26.42
2023-01-08T02:10:31.005Z,27.58
2023-01-08T02:12:45.596Z,23.60
2023-01-08T02:15:30.246Z,22.98
2023-01-08T02:17:37.761Z,21.55
2023-01-08T02:20:08.984Z,21.33
2023-01-08T02:22:38.417Z,21.60
2023-01-08T02:25:08.299Z,18.75
2023-01-08T02:27:11.762Z,23.88
2023-01-08T02:29:21.075Z,19.90
2023-01-08T02:31:25.816Z,21.60
2023-01-08T02:33:29.393Z,19.85
2023-01-08T02:35:51.831Z,21.65
2023-01-08T02:37:53.720Z,17.63
2023-01-08T02:40:14.020Z,20.58
2023-01-08T02:42:55.613Z,20.38
2023-01-08T02:45:03.133Z,18.63
2023-01-08T02:47:10.485Z,19.17
2023-01-08T02:49:15.796Z,20.63
2023-01-08T02:51:26.688Z,21.13
2023-01-08T02:53:34.856Z,22.25
2023-01-08T02:55:41.315Z,24.02
2023-01-08T02:57:43.434Z,18.98
2023-01-08T02:59:46.916Z,18.83
2023-01-08T03:01:49.482Z,19.33
2023-01-08T03:03:56.285Z,23.23
2023-01-08T03:06:10.549Z,18.48
2023-01-08T03:08:15.414Z,23.80
2023-01-08T03:10:20.935Z,15.98
2023-01-08T03:12:52.408Z,21.92
2023-01-08T03:15:04.403Z,24.40
2023-01-08T03:17:18.296Z,23.52
2023-01-08T03:19:23.243Z,20.52
2023-01-08T03:21:26.280Z,25.48
2023-01-08T03:23:29.055Z,19.15
2023-01-08T03:25:31.415Z,23.13
2023-01-08T03:27:36.453Z,18.70
2023-01-08T03:29:40.462Z,20.08
2023-01-08T03:31:44.575Z,21.27
2023-01-08T03:33:47.841Z,16.00
2023-01-08T03:35:53.828Z,26.73
2023-01-08T03:38:07.088Z,17.35
2023-01-08T03:40:18.269Z,17.08
2023-01-08T03:42:21.569Z,20.85
2023-01-08T03:44:23.505Z,19.92
2023-01-08T03:46:39.296Z,16.75
2023-01-08T03:48:42.108Z,17.83
2023-01-08T03:50:44.125Z,23.67
2023-01-08T03:52:45.985Z,18.83
2023-01-08T03:54:47.869Z,21.10
2023-01-08T03:56:49.820Z,17.40
2023-01-08T03:58:51.754Z,24.55
2023-01-08T04:00:53.606Z,23.75
2023-01-08T04:02:55.503Z,23.33
2023-01-08T04:04:57.370Z,22.05
2023-01-08T04:07:00.309Z,21.60
2023-01-08T04:09:02.345Z,21.20
2023-01-08T04:11:04.252Z,21.13
2023-01-08T04:13:06.096Z,23.70
2023-01-08T04:15:08.414Z,20.85
2023-01-08T04:17:13.696Z,18.35
2023-01-08T04:19:15.876Z,22.15
2023-01-08T04:21:17.965Z,19.90
2023-01-08T04:23:19.815Z,18.27
2023-01-08T04:25:21.635Z,17.13
2023-01-08T04:27:23.532Z,19.52
2023-01-08T04:29:25.419Z,14.40
2023-01-08T04:31:27.420Z,18.73
2023-01-08T04:33:29.390Z,17.13
2023-01-08T04:35:31.447Z,16.80
2023-01-08T04:37:33.298Z,18.23
2023-01-08T04:39:36.380Z,17.13
2023-01-08T04:41:38.234Z,21.67
2023-01-08T04:43:40.103Z,19.35
2023-01-08T04:45:41.990Z,17.27
2023-01-08T04:47:43.871Z,15.38
2023-01-08T04:49:45.723Z,22.50
2023-01-08T04:51:47.645Z,19.08
2023-01-08T04:53:49.497Z,15.95
2023-01-08T04:55:51.368Z,19.58
2023-01-08T04:57:53.262Z,18.73
2023-01-08T04:59:55.111Z,15.30
2023-01-08T05:01:57.096Z,30.17
2023-01-08T05:04:01.677Z,19.90
2023-01-08T05:06:03.639Z,21.30
2023-01-08T05:08:05.556Z,15.70
2023-01-08T05:10:08.092Z,21.95
2023-01-08T05:12:09.953Z,19.33
2023-01-08T05:14:12.611Z,19.88
2023-01-08T05:16:14.610Z,19.55
2023-01-08T05:18:16.489Z,19.40
2023-01-08T05:20:19.112Z,28.05
2023-01-08T05:22:21.031Z,26.63
2023-01-08T05:24:22.877Z,20.20
2023-01-08T05:26:24.785Z,15.65
2023-01-08T05:28:27.903Z,22.80
2023-01-08T05:30:29.799Z,17.85
2023-01-08T05:32:31.672Z,21.70
2023-01-08T05:34:33.560Z,23.88
2023-01-08T05:36:35.418Z,21.92
2023-01-08T05:38:38.057Z,19.88
2023-01-08T05:40:40.064Z,19.75
2023-01-08T05:42:41.949Z,18.98
2023-01-08T05:44:43.862Z,18.13
2023-01-08T05:46:45.812Z,25.48
2023-01-08T05:48:47.732Z,27.55
2023-01-08T05:50:50.437Z,24.17
2023-01-08T05:52:52.321Z,27.02
2023-01-08T05:54:54.220Z,17.30
2023-01-08T05:56:56.104Z,18.02
2023-01-08T05:58:58.015Z,18.02
2023-01-08T06:01:10.349Z,17.42
2023-01-08T06:03:12.389Z,18.95
2023-01-08T06:05:14.613Z,18.35
2023-01-08T06:07:16.503Z,17.85
2023-01-08T06:09:18.485Z,24.50
2023-01-08T06:11:20.395Z,21.40
2023-01-08T06:13:22.301Z,22.75
2023-01-08T06:15:24.170Z,22.13
2023-01-08T06:17:26.160Z,22.77
2023-01-08T06:19:28.022Z,21.45
2023-01-08T06:21:29.894Z,20.65
2023-01-08T06:23:32.513Z,19.30
2023-01-08T06:25:34.354Z,23.73
2023-01-08T06:27:36.193Z,16.90
2023-01-08T06:29:38.093Z,16.75
2023-01-08T06:31:40.077Z,20.98
2023-01-08T06:33:42.033Z,18.70
2023-01-08T06:35:43.988Z,24.25
2023-01-08T06:37:45.831Z,29.17
2023-01-08T06:39:47.689Z,21.20
2023-01-08T06:41:49.572Z,24.42
2023-01-08T06:43:51.485Z,22.25
2023-01-08T06:45:55.030Z,20.92
2023-01-08T06:48:04.119Z,22.73
2023-01-08T06:50:06.921Z,24.23
2023-01-08T06:52:08.938Z,28.80
2023-01-08T06:54:12.741Z,25.23
2023-01-08T06:56:15.418Z,17.60
2023-01-08T06:58:17.273Z,23.20
2023-01-08T07:00:19.330Z,18.63
2023-01-08T08:14:31.776Z,26.75
2023-01-08T08:16:33.966Z,24.70
2023-01-08T08:18:35.869Z,22.23
2023-01-08T08:24:41.700Z,16.10
2023-01-08T08:26:43.644Z,28.40
2023-01-08T08:28:45.575Z,18.58
2023-01-08T08:30:47.605Z,26.92
2023-01-08T08:32:49.530Z,18.85
2023-01-08T08:34:51.374Z,18.10
2023-01-08T08:38:54.992Z,19.02
2023-01-08T08:40:56.931Z,21.77
2023-01-08T08:43:00.691Z,20.88
2023-01-08T08:45:02.615Z,19.08
2023-01-08T08:47:08.340Z,23.45
2023-01-08T08:49:10.313Z,19.45
2023-01-08T08:51:12.846Z,22.10
2023-01-08T08:53:14.777Z,18.20
2023-01-08T08:55:17.365Z,20.52
2023-01-08T08:57:19.310Z,18.65
2023-01-08T08:59:21.637Z,16.40
2023-01-08T09:01:23.562Z,21.70
2023-01-08T09:03:25.608Z,18.00
2023-01-08T09:05:27.734Z,18.52
2023-01-08T09:07:29.898Z,19.60
2023-01-08T09:09:31.791Z,17.17
2023-01-08T09:11:33.680Z,17.17
2023-01-08T09:13:37.667Z,16.25
2023-01-08T09:15:40.019Z,22.42
2023-01-08T09:17:41.898Z,23.55
2023-01-08T09:21:45.715Z,17.48
2023-01-08T09:23:49.321Z,22.55
2023-01-08T09:25:58.463Z,20.30
2023-01-08T09:28:08.307Z,22.05
2023-01-08T09:30:11.752Z,20.30
2023-01-08T09:32:13.736Z,20.55
2023-01-08T09:34:15.847Z,32.90
2023-01-08T09:36:18.627Z,22.27
2023-01-08T09:38:20.474Z,24.13
2023-01-08T09:42:27.889Z,17.27
2023-01-08T09:44:36.105Z,23.20
2023-01-08T09:46:38.254Z,22.23
2023-01-08T09:48:42.151Z,20.33
2023-01-08T09:50:44.471Z,16.42
2023-01-08T09:52:46.814Z,22.88
2023-01-08T09:54:48.727Z,19.10
2023-01-08T09:56:50.872Z,20.15
2023-01-08T09:58:55.653Z,24.15
2023-01-08T10:00:58.042Z,19.63
2023-01-08T10:03:00.593Z,22.98
2023-01-08T10:05:03.978Z,17.05
2023-01-08T10:07:25.779Z,17.45
2023-01-08T10:09:29.989Z,20.38
2023-01-08T10:11:44.991Z,23.52
2023-01-08T10:13:52.669Z,19.70
2023-01-08T10:15:54.551Z,19.00
2023-01-08T10:20:25.625Z,21.00
2023-01-08T10:22:33.985Z,21.88
2023-01-08T10:24:39.686Z,14.77
2023-01-08T10:26:41.685Z,19.10
2023-01-08T10:28:43.538Z,18.27
2023-01-08T10:32:54.535Z,18.77
2023-01-08T10:34:58.043Z,26.65
2023-01-08T10:37:00.459Z,19.58
2023-01-08T10:39:05.509Z,26.65
2023-01-08T10:41:11.689Z,23.33
2023-01-08T10:43:15.835Z,16.73
2023-01-08T10:45:22.932Z,19.55
2023-01-08T10:47:26.948Z,15.73
2023-01-08T10:49:33.679Z,19.50
2023-01-08T10:51:35.579Z,18.42
2023-01-08T10:55:40.764Z,16.35
2023-01-08T10:57:52.851Z,16.52
2023-01-08T11:04:04.936Z,15.75
2023-01-08T11:06:31.757Z,18.27
2023-01-08T11:08:34.882Z,21.77
2023-01-08T11:10:37.735Z,21.63
2023-01-08T11:12:41.357Z,14.85
2023-01-08T11:14:46.646Z,16.75
2023-01-08T11:16:49.137Z,23.63
2023-01-08T11:18:51.660Z,16.08
2023-01-08T11:21:06.088Z,17.20
2023-01-08T11:23:23.614Z,18.02
2023-01-08T11:25:30.127Z,19.38
2023-01-08T11:27:36.956Z,20.08
2023-01-08T11:29:51.090Z,21.20
2023-01-08T11:32:08.302Z,19.25
2023-01-08T11:34:20.821Z,16.73
2023-01-08T11:36:49.734Z,15.98
2023-01-08T11:38:51.845Z,15.95
2023-01-08T11:41:03.147Z,17.33
2023-01-08T11:43:17.558Z,25.20
2023-01-08T11:45:44.059Z,21.10
2023-01-08T11:48:16.780Z,16.45
2023-01-08T11:50:27.597Z,15.73
2023-01-08T11:52:37.822Z,20.52
2023-01-08T11:54:51.331Z,18.55
2023-01-08T11:57:05.001Z,20.13
2023-01-08T11:59:22.814Z,17.77
2023-01-08T12:01:49.366Z,16.00
2023-01-08T14:16:17.235Z,26.63
2023-01-08T14:18:19.680Z,21.67
2023-01-08T14:20:40.290Z,20.23
2023-01-08T14:22:42.907Z,22.92
2023-01-08T14:24:45.720Z,22.88
2023-01-08T14:26:59.021Z,24.58
2023-01-08T14:29:02.337Z,26.33
2023-01-08T14:31:04.319Z,21.52
2023-01-08T14:33:12.691Z,26.85
2023-01-08T14:35:21.129Z,20.95
2023-01-08T14:37:24.497Z,19.52
2023-01-08T14:39:33.738Z,20.13
2023-01-08T14:41:57.956Z,33.65
2023-01-08T14:43:59.911Z,23.30
2023-01-08T14:46:03.889Z,24.10
2023-01-08T14:48:08.963Z,22.42
2023-01-08T14:50:20.366Z,24.30
2023-01-08T14:52:22.695Z,23.13
2023-01-08T14:54:30.884Z,26.27
2023-01-08T14:56:36.222Z,25.48
2023-01-08T14:58:40.612Z,22.60
2023-01-08T15:00:43.025Z,28.60
2023-01-08T15:02:47.619Z,24.05
2023-01-08T15:04:53.697Z,26.00
2023-01-08T15:07:08.116Z,25.23
2023-01-08T15:09:30.139Z,24.52
2023-01-08T15:11:32.596Z,25.92
2023-01-08T15:13:40.160Z,32.67
2023-01-08T15:16:01.074Z,32.45
2023-01-08T15:18:07.047Z,28.02
2023-01-08T15:20:17.579Z,23.70
2023-01-08T15:22:25.445Z,33.08
2023-01-08T15:24:36.360Z,29.02
2023-01-08T15:26:41.972Z,30.27
2023-01-08T15:28:57.829Z,29.27
2023-01-08T15:30:59.784Z,32.03
2023-01-08T15:33:20.071Z,35.15
2023-01-08T15:35:25.895Z,42.28
2023-01-08T15:37:28.316Z,37.63
2023-01-08T15:39:30.590Z,34.30
2023-01-08T15:41:58.356Z,38.08
2023-01-08T15:44:00.223Z,31.70
2023-01-08T15:46:07.850Z,40.67
2023-01-08T15:48:18.778Z,29.52
2023-01-08T15:50:27.743Z,32.60
2023-01-08T15:52:29.863Z,50.22
2023-01-08T15:54:31.789Z,33.72
2023-01-08T15:56:36.932Z,42.88
2023-01-08T15:58:38.861Z,39.75
2023-01-08T16:00:42.960Z,42.10
2023-01-08T16:02:50.117Z,40.92
2023-01-08T16:04:54.015Z,34.38
2023-01-08T16:06:55.870Z,36.75
2023-01-08T16:09:00.379Z,28.20
2023-01-08T16:11:02.451Z,28.92
2023-01-08T16:13:04.730Z,30.23
2023-01-08T16:15:08.269Z,36.38
2023-01-08T16:17:10.313Z,42.95
2023-01-08T16:19:12.269Z,35.30
2023-01-08T16:21:14.350Z,38.25
2023-01-08T16:23:16.497Z,30.90
2023-01-08T16:25:18.556Z,41.40
2023-01-08T16:27:20.568Z,42.58
2023-01-08T16:29:22.678Z,61.03
2023-01-08T16:31:24.555Z,117.70
2023-01-08T16:33:26.468Z,103.60
2023-01-08T16:35:28.401Z,131.18
2023-01-08T16:37:31.615Z,74.07
2023-01-08T16:39:33.492Z,72.43
2023-01-08T16:41:36.726Z,60.38
2023-01-08T16:43:40.951Z,60.20
2023-01-08T16:45:47.147Z,59.85
2023-01-08T16:47:49.121Z,50.20
2023-01-08T16:49:51.169Z,40.60
2023-01-08T16:51:53.075Z,41.22
2023-01-08T16:53:55.021Z,44.97
2023-01-08T16:56:00.034Z,40.40
2023-01-08T16:58:02.060Z,34.72
2023-01-08T17:00:05.761Z,39.38
2023-01-08T17:02:09.240Z,44.67
2023-01-08T17:04:11.255Z,44.20
2023-01-08T17:06:14.503Z,41.03
2023-01-08T17:08:17.107Z,36.55
2023-01-08T17:10:19.268Z,49.35
2023-01-08T17:12:22.674Z,46.30
2023-01-08T17:14:24.810Z,42.67
2023-01-08T17:16:26.777Z,40.05
2023-01-08T17:18:28.720Z,55.13
2023-01-08T17:20:30.749Z,45.83
2023-01-08T17:22:32.740Z,34.58
2023-01-08T17:24:34.754Z,38.25
2023-01-08T17:26:36.686Z,33.90
2023-01-08T17:28:38.773Z,34.38
2023-01-08T17:30:40.728Z,38.22
2023-01-08T17:32:42.755Z,42.15
2023-01-08T17:34:44.667Z,39.70
2023-01-08T17:36:46.568Z,46.10
2023-01-08T17:38:51.457Z,37.33
2023-01-08T17:40:53.339Z,34.33
2023-01-08T17:42:56.088Z,27.52
2023-01-08T17:45:05.646Z,40.03
2023-01-08T17:47:07.681Z,34.83
2023-01-08T17:49:11.433Z,35.03
2023-01-08T17:51:14.445Z,34.67
2023-01-08T17:53:16.343Z,33.38
2023-01-08T17:55:18.349Z,31.33
2023-01-08T17:57:20.993Z,37.20
2023-01-08T17:59:23.782Z,48.42
2023-01-08T19:06:47.073Z,47.05
2023-01-08T19:08:49.270Z,39.67
2023-01-08T19:10:57.268Z,36.40
2023-01-08T19:12:59.331Z,32.30
2023-01-08T19:15:01.314Z,33.80
2023-01-08T19:17:03.343Z,35.67
2023-01-08T19:19:05.356Z,43.92
2023-01-08T19:21:16.900Z,36.72
2023-01-08T19:23:19.291Z,36.33
2023-01-08T19:25:21.610Z,28.25
2023-01-08T19:27:24.193Z,24.77
2023-01-08T19:29:26.265Z,25.77
2023-01-08T19:31:31.875Z,33.33
2023-01-08T19:33:46.408Z,28.48
2023-01-08T19:35:48.514Z,26.63
2023-01-08T19:37:56.299Z,24.17
2023-01-08T19:40:01.677Z,26.40
2023-01-08T19:42:30.254Z,31.02
2023-01-08T19:44:44.183Z,26.35
2023-01-08T19:46:46.128Z,24.52
2023-01-08T19:48:51.116Z,29.83
2023-01-08T19:50:54.198Z,31.17
2023-01-08T19:53:04.573Z,27.02
2023-01-08T19:55:09.953Z,27.10
2023-01-08T19:57:14.792Z,28.52
2023-01-08T19:59:22.480Z,33.58
2023-01-08T20:01:28.430Z,28.63
2023-01-08T20:03:30.576Z,36.42
2023-01-08T20:05:32.646Z,38.33
2023-01-08T20:07:34.648Z,42.83
2023-01-08T20:09:36.783Z,42.38
2023-01-08T20:11:38.969Z,80.90
2023-01-08T20:13:41.330Z,54.78
2023-01-08T20:15:43.251Z,58.05
2023-01-08T20:17:45.111Z,43.85
2023-01-08T20:19:49.426Z,31.38
2023-01-08T20:21:51.985Z,42.55
2023-01-08T20:23:59.236Z,41.28
2023-01-08T20:26:06.407Z,39.30
2023-01-08T20:28:08.346Z,36.03
2023-01-08T20:30:10.988Z,38.25
2023-01-08T20:32:13.070Z,45.15
2023-01-08T20:34:16.047Z,50.38
2023-01-08T20:36:21.344Z,37.40
2023-01-08T20:38:23.384Z,38.08
2023-01-08T20:40:25.328Z,33.88
2023-01-08T20:42:33.919Z,36.13
2023-01-08T20:44:36.753Z,34.88
2023-01-08T20:46:39.167Z,29.73
2023-01-08T20:48:47.693Z,38.28
2023-01-08T20:50:58.723Z,29.33
2023-01-08T20:53:00.788Z,35.25
2023-01-08T20:55:03.391Z,42.58
